createdAt,value
2023-02-06T00:00:53.621Z,5.20
2023-02-06T00:03:20.768Z,5.20
2023-02-06T00:06:01.197Z,5.20
2023-02-06T00:08:28.652Z,5.20
2023-02-06T00:10:55.770Z,5.20
2023-02-06T00:13:23.069Z,5.20
2023-02-06T00:15:50.180Z,5.10
2023-02-06T00:18:17.205Z,5.10
2023-02-06T00:20:44.158Z,5.10
2023-02-06T00:23:11.159Z,5.10
2023-02-06T00:25:38.252Z,5.10
2023-02-06T00:28:05.659Z,5.10
2023-02-06T00:30:32.810Z,5.00
2023-02-06T00:32:59.852Z,5.00
2023-02-06T00:35:28.238Z,5.10
2023-02-06T00:37:55.241Z,5.10
2023-02-06T00:40:22.236Z,5.10
2023-02-06T00:42:49.195Z,5.10
2023-02-06T00:45:16.178Z,5.10
2023-02-06T00:47:43.146Z,5.10
2023-02-06T00:50:10.253Z,5.10
2023-02-06T00:52:37.309Z,5.10
2023-02-06T00:55:05.557Z,5.10
2023-02-06T00:57:32.489Z,5.10
2023-02-06T00:59:59.508Z,5.10
2023-02-06T01:02:26.917Z,5.10
2023-02-06T01:04:53.912Z,5.00
2023-02-06T01:07:20.837Z,5.00
2023-02-06T01:09:47.817Z,4.90
2023-02-06T01:12:14.751Z,4.90
2023-02-06T01:14:41.726Z,4.90
2023-02-06T01:17:11.766Z,4.90
2023-02-06T01:19:39.091Z,4.90
2023-02-06T01:22:06.863Z,4.90
2023-02-06T01:24:35.826Z,5.00
2023-02-06T01:27:03.672Z,5.00
2023-02-06T01:29:30.706Z,5.00
2023-02-06T01:31:57.591Z,5.00
2023-02-06T01:34:24.522Z,5.00
2023-02-06T01:36:51.501Z,5.00
2023-02-06T01:39:18.508Z,5.00
2023-02-06T01:41:46.531Z,5.00
2023-02-06T01:44:22.564Z,5.00
2023-02-06T01:46:54.997Z,4.90
2023-02-06T01:49:35.894Z,4.90
2023-02-06T01:52:17.310Z,5.00
2023-02-06T01:54:49.284Z,5.00
2023-02-06T01:57:17.226Z,5.00
2023-02-06T01:59:49.361Z,5.00
2023-02-06T02:02:16.653Z,5.00
2023-02-06T02:04:45.025Z,5.00
2023-02-06T02:07:22.866Z,5.00
2023-02-06T02:09:49.830Z,5.00
2023-02-06T02:12:17.212Z,5.10
2023-02-06T02:14:45.867Z,5.10
2023-02-06T02:17:28.441Z,5.10
2023-02-06T02:20:32.863Z,5.10
2023-02-06T02:23:15.114Z,5.00
2023-02-06T02:25:42.012Z,5.00
2023-02-06T02:28:27.633Z,5.00
2023-02-06T02:31:09.712Z,5.00
2023-02-06T02:34:13.605Z,4.90
2023-02-06T02:36:51.676Z,4.80
2023-02-06T02:39:35.107Z,4.80
2023-02-06T02:42:13.350Z,4.70
2023-02-06T02:45:11.495Z,4.50
2023-02-06T02:48:06.521Z,4.50
2023-02-06T02:50:34.329Z,4.40
2023-02-06T02:53:03.272Z,4.30
2023-02-06T02:55:30.263Z,4.30
2023-02-06T02:58:11.623Z,4.20
2023-02-06T03:00:44.825Z,4.20
2023-02-06T03:03:14.511Z,4.20
2023-02-06T03:06:06.770Z,4.10
2023-02-06T03:08:51.867Z,4.10
2023-02-06T03:11:23.898Z,4.10
2023-02-06T03:14:34.406Z,4.10
2023-02-06T03:17:07.146Z,4.00
2023-02-06T03:19:39.730Z,4.00
2023-02-06T03:22:06.796Z,4.00
2023-02-06T03:24:37.833Z,3.90
2023-02-06T03:27:10.693Z,3.90
2023-02-06T03:29:41.619Z,3.90
2023-02-06T03:32:15.292Z,3.80
2023-02-06T03:34:53.505Z,3.80
2023-02-06T03:37:21.815Z,3.70
2023-02-06T03:39:49.128Z,3.70
2023-02-06T03:42:17.300Z,3.60
2023-02-06T03:44:58.120Z,3.60
2023-02-06T03:47:26.632Z,3.50
2023-02-06T03:49:57.455Z,3.40
2023-02-06T03:52:28.387Z,3.40
2023-02-06T03:55:02.489Z,3.30
2023-02-06T03:57:32.926Z,3.20
2023-02-06T03:59:59.907Z,3.20
2023-02-06T04:02:27.475Z,3.20
2023-02-06T04:04:54.511Z,3.20
2023-02-06T04:07:30.145Z,3.20
2023-02-06T04:09:57.118Z,3.20
2023-02-06T04:12:24.999Z,3.10
2023-02-06T04:14:52.310Z,3.10
2023-02-06T04:17:38.463Z,3.10
2023-02-06T04:20:07.841Z,3.10
2023-02-06T04:22:35.045Z,3.10
2023-02-06T04:25:02.118Z,3.10
2023-02-06T04:27:29.108Z,3.10
2023-02-06T04:29:56.039Z,3.00
2023-02-06T04:32:23.008Z,2.90
2023-02-06T04:34:49.981Z,2.90
2023-02-06T04:37:16.932Z,2.80
2023-02-06T04:39:44.003Z,2.80
2023-02-06T04:42:10.943Z,2.70
2023-02-06T04:44:38.552Z,2.60
2023-02-06T04:47:06.252Z,2.60
2023-02-06T04:49:33.801Z,2.60
2023-02-06T04:52:00.767Z,2.60
2023-02-06T04:54:27.766Z,2.60
2023-02-06T04:56:54.761Z,2.60
2023-02-06T04:59:21.706Z,2.60
2023-02-06T05:01:48.659Z,2.60
2023-02-06T05:04:15.673Z,2.60
2023-02-06T05:06:42.613Z,2.60
2023-02-06T05:09:10.000Z,2.60
2023-02-06T05:11:36.951Z,2.50
2023-02-06T05:14:03.892Z,2.60
2023-02-06T05:16:30.877Z,2.60
2023-02-06T05:18:58.249Z,2.60
2023-02-06T05:21:26.083Z,2.70
2023-02-06T05:23:53.193Z,2.70
2023-02-06T05:26:20.443Z,2.70
2023-02-06T05:28:47.697Z,2.70
2023-02-06T05:31:19.715Z,2.70
2023-02-06T05:33:50.422Z,2.80
2023-02-06T05:36:19.900Z,2.70
2023-02-06T05:38:47.905Z,2.80
2023-02-06T05:41:15.800Z,2.80
2023-02-06T05:43:43.009Z,2.80
2023-02-06T05:46:11.324Z,2.80
2023-02-06T05:48:38.583Z,2.90
2023-02-06T05:51:05.710Z,2.90
2023-02-06T05:53:32.854Z,3.00
2023-02-06T05:55:59.808Z,3.00
2023-02-06T05:58:26.910Z,3.10
2023-02-06T06:00:53.978Z,3.10
2023-02-06T06:03:20.986Z,3.10
2023-02-06T06:05:48.412Z,3.10
2023-02-06T06:08:15.872Z,3.10
2023-02-06T06:10:42.826Z,3.10
2023-02-06T06:13:09.888Z,3.10
2023-02-06T06:15:37.511Z,3.10
2023-02-06T06:18:04.842Z,3.10
2023-02-06T06:20:31.801Z,3.10
2023-02-06T06:22:58.830Z,3.10
2023-02-06T06:25:25.824Z,3.00
2023-02-06T06:27:52.936Z,3.00
2023-02-06T06:30:19.983Z,3.00
2023-02-06T06:32:47.030Z,3.00
2023-02-06T06:35:13.928Z,3.00
2023-02-06T06:37:40.879Z,3.00
2023-02-06T06:40:08.338Z,2.90
2023-02-06T06:42:35.310Z,2.90
2023-02-06T06:45:02.262Z,2.80
2023-02-06T06:47:29.246Z,2.80
2023-02-06T06:49:56.228Z,2.70
2023-02-06T06:52:25.550Z,2.70
2023-02-06T06:54:53.538Z,2.70
2023-02-06T06:57:22.112Z,2.80
2023-02-06T06:59:49.595Z,2.80
2023-02-06T07:02:17.527Z,2.90
2023-02-06T07:04:44.517Z,3.10
2023-02-06T07:07:11.571Z,3.20
2023-02-06T07:09:38.534Z,3.50
2023-02-06T07:12:05.812Z,3.70
2023-02-06T07:14:32.882Z,3.90
2023-02-06T07:17:01.680Z,3.90
2023-02-06T07:19:28.778Z,4.00
2023-02-06T07:21:55.755Z,4.10
2023-02-06T07:24:22.802Z,4.20
2023-02-06T07:26:49.788Z,4.50
2023-02-06T07:29:16.804Z,4.80
2023-02-06T07:31:43.712Z,5.20
2023-02-06T07:34:10.727Z,5.60
2023-02-06T07:36:38.055Z,5.90
2023-02-06T07:39:05.367Z,6.30
2023-02-06T07:41:32.366Z,6.60
2023-02-06T07:43:59.397Z,6.90
2023-02-06T07:46:26.500Z,6.90
2023-02-06T07:48:53.491Z,6.70
2023-02-06T07:51:20.673Z,6.40
2023-02-06T07:53:48.480Z,6.30
2023-02-06T07:56:20.343Z,6.30
2023-02-06T07:58:51.830Z,6.30
2023-02-06T08:01:19.380Z,6.40
2023-02-06T08:03:46.352Z,6.40
2023-02-06T08:06:15.878Z,6.50
2023-02-06T08:08:43.944Z,6.70
2023-02-06T08:11:15.034Z,6.90
2023-02-06T08:13:43.289Z,7.00
2023-02-06T08:16:19.352Z,7.10
2023-02-06T08:18:47.031Z,7.20
2023-02-06T08:21:19.082Z,7.30
2023-02-06T08:23:46.205Z,7.30
2023-02-06T08:26:18.542Z,7.40
2023-02-06T08:28:47.318Z,7.20
2023-02-06T08:31:23.678Z,7.20
2023-02-06T08:33:51.158Z,7.10
2023-02-06T08:36:19.754Z,7.00
2023-02-06T08:38:47.834Z,6.90
2023-02-06T08:41:19.553Z,6.90
2023-02-06T08:43:51.186Z,6.90
2023-02-06T08:46:19.535Z,6.90
2023-02-06T08:48:46.674Z,7.00
2023-02-06T08:51:15.301Z,7.20
2023-02-06T08:53:42.236Z,7.30
2023-02-06T08:56:11.172Z,7.50
2023-02-06T08:58:39.019Z,7.50
2023-02-06T09:01:13.691Z,7.50
2023-02-06T09:03:44.281Z,7.50
2023-02-06T09:06:12.301Z,7.60
2023-02-06T09:08:40.511Z,7.70
2023-02-06T09:11:18.072Z,7.80
2023-02-06T09:13:50.039Z,7.90
2023-02-06T09:16:20.753Z,7.90
2023-02-06T09:18:49.073Z,7.90
2023-02-06T09:21:25.598Z,7.80
2023-02-06T09:23:56.718Z,7.70
2023-02-06T09:26:33.381Z,7.60
2023-02-06T09:29:05.500Z,7.50
2023-02-06T09:31:32.673Z,7.40
2023-02-06T09:34:02.579Z,7.30
2023-02-06T09:36:30.361Z,7.20
2023-02-06T09:38:58.379Z,7.30
2023-02-06T09:41:37.511Z,7.40
2023-02-06T09:44:29.761Z,7.50
2023-02-06T09:46:59.464Z,7.60
2023-02-06T09:49:40.470Z,7.70
2023-02-06T09:52:29.127Z,7.80
2023-02-06T09:55:26.611Z,7.80
2023-02-06T09:58:11.544Z,7.90
2023-02-06T10:00:38.683Z,8.00
2023-02-06T10:03:11.557Z,8.00
2023-02-06T10:05:54.793Z,8.10
2023-02-06T10:08:28.993Z,8.20
2023-02-06T10:10:58.606Z,8.30
2023-02-06T10:13:25.681Z,8.40
2023-02-06T10:15:59.783Z,8.50
2023-02-06T10:18:32.948Z,8.50
2023-02-06T10:21:06.787Z,8.50
2023-02-06T10:23:47.377Z,8.50
2023-02-06T10:26:18.125Z,8.50
2023-02-06T10:28:49.762Z,8.50
2023-02-06T10:31:21.694Z,8.50
2023-02-06T10:34:15.334Z,8.60
2023-02-06T10:36:57.231Z,8.70
2023-02-06T10:39:44.984Z,8.70
2023-02-06T10:42:33.738Z,8.80
2023-02-06T10:45:18.923Z,8.80
2023-02-06T10:47:59.044Z,8.90
2023-02-06T10:50:34.911Z,9.00
2023-02-06T10:53:12.179Z,9.00
2023-02-06T10:55:52.141Z,9.10
2023-02-06T10:58:53.126Z,9.10
2023-02-06T11:01:26.503Z,9.10
2023-02-06T11:04:10.528Z,9.20
2023-02-06T11:06:40.190Z,9.30
2023-02-06T11:09:07.242Z,9.30
2023-02-06T11:11:40.970Z,9.30
2023-02-06T11:14:24.867Z,9.40
2023-02-06T11:16:52.804Z,9.50
2023-02-06T11:19:27.306Z,9.50
2023-02-06T11:21:54.426Z,9.60
2023-02-06T11:24:24.354Z,9.60
2023-02-06T11:27:00.614Z,9.70
2023-02-06T11:29:51.642Z,9.70
2023-02-06T11:32:52.867Z,9.80
2023-02-06T11:35:39.764Z,9.80
2023-02-06T11:38:29.475Z,9.90
2023-02-06T11:40:56.380Z,9.90
2023-02-06T11:43:44.503Z,9.90
2023-02-06T11:46:11.468Z,9.90
2023-02-06T11:48:41.307Z,9.90
2023-02-06T11:51:09.556Z,10.00
2023-02-06T11:53:37.829Z,10.20
2023-02-06T11:56:15.895Z,10.30
2023-02-06T11:58:44.123Z,10.40
2023-02-06T12:01:19.911Z,10.40
2023-02-06T12:03:49.987Z,10.30
2023-02-06T12:06:33.970Z,10.10
2023-02-06T12:09:03.950Z,9.90
2023-02-06T12:11:47.005Z,9.80
2023-02-06T12:14:19.050Z,9.60
2023-02-06T12:16:47.048Z,9.50
2023-02-06T12:19:21.376Z,9.40
2023-02-06T12:21:56.136Z,9.30
2023-02-06T12:24:40.726Z,9.20
2023-02-06T12:27:22.903Z,9.20
2023-02-06T12:30:19.229Z,9.10
2023-02-06T12:32:50.974Z,9.10
2023-02-06T12:35:59.439Z,9.10
2023-02-06T12:38:50.735Z,9.00
2023-02-06T12:41:47.961Z,8.90
2023-02-06T12:44:44.377Z,8.90
2023-02-06T12:47:14.376Z,8.90
2023-02-06T12:50:19.024Z,8.80
2023-02-06T12:52:51.872Z,8.80
2023-02-06T12:55:27.724Z,8.70
2023-02-06T12:57:55.677Z,8.70
2023-02-06T13:00:38.653Z,8.60
2023-02-06T13:03:33.173Z,8.60
2023-02-06T13:06:23.296Z,8.50
2023-02-06T13:08:56.111Z,8.50
2023-02-06T13:11:39.192Z,8.40
2023-02-06T13:14:21.672Z,8.30
2023-02-06T13:17:12.296Z,8.30
2023-02-06T13:19:39.346Z,8.30
2023-02-06T13:22:16.905Z,8.30
2023-02-06T13:24:45.973Z,8.20
2023-02-06T13:27:39.629Z,8.20
2023-02-06T13:30:18.071Z,8.20
2023-02-06T13:32:50.073Z,8.20
2023-02-06T13:35:17.109Z,8.30
2023-02-06T13:37:48.209Z,8.30
2023-02-06T13:40:24.472Z,8.30
2023-02-06T13:43:02.718Z,8.40
2023-02-06T13:45:57.200Z,8.30
2023-02-06T13:48:29.875Z,8.30
2023-02-06T13:51:18.598Z,8.30
2023-02-06T13:54:05.450Z,8.40
2023-02-06T13:56:45.065Z,8.30
2023-02-06T13:59:39.769Z,8.30
2023-02-06T14:02:15.652Z,8.30
2023-02-06T14:04:45.289Z,8.30
2023-02-06T14:07:27.440Z,8.30
2023-02-06T14:10:23.747Z,8.30
2023-02-06T14:13:32.927Z,8.20
2023-02-06T14:16:23.867Z,8.20
2023-02-06T14:19:02.371Z,8.10
2023-02-06T14:21:40.968Z,8.00
2023-02-06T14:24:34.361Z,7.90
2023-02-06T14:27:29.035Z,7.90
2023-02-06T14:30:27.510Z,7.80
2023-02-06T14:33:25.103Z,7.70
2023-02-06T14:36:10.765Z,7.70
2023-02-06T14:38:37.741Z,7.70
2023-02-06T14:41:04.890Z,7.70
2023-02-06T14:43:39.360Z,7.70
2023-02-06T14:46:12.242Z,7.70
2023-02-06T14:48:44.505Z,7.80
2023-02-06T14:51:34.625Z,7.80
2023-02-06T14:54:04.477Z,7.80
2023-02-06T14:56:37.249Z,7.80
2023-02-06T14:59:13.021Z,7.80
2023-02-06T15:01:41.837Z,7.80
2023-02-06T15:04:21.981Z,7.80
2023-02-06T15:07:04.505Z,7.80
2023-02-06T15:09:37.833Z,7.80
2023-02-06T15:12:19.026Z,7.80
2023-02-06T15:15:16.349Z,7.80
2023-02-06T15:17:43.859Z,7.80
2023-02-06T15:20:37.035Z,7.80
2023-02-06T15:23:17.628Z,7.80
2023-02-06T15:25:59.238Z,7.70
2023-02-06T15:28:29.945Z,7.60
2023-02-06T15:30:59.208Z,7.50
2023-02-06T15:33:29.338Z,7.40
2023-02-06T15:35:58.192Z,7.30
2023-02-06T15:38:27.440Z,7.20
2023-02-06T15:41:05.477Z,7.20
2023-02-06T15:43:34.446Z,7.10
2023-02-06T15:46:04.421Z,7.00
2023-02-06T15:48:50.283Z,7.00
2023-02-06T15:51:30.081Z,6.90
2023-02-06T15:54:19.574Z,6.80
2023-02-06T15:57:28.708Z,6.70
2023-02-06T15:59:59.068Z,6.70
2023-02-06T16:02:36.997Z,6.60
2023-02-06T16:05:05.986Z,6.50
2023-02-06T16:07:37.839Z,6.40
2023-02-06T16:10:06.029Z,6.40
2023-02-06T16:12:35.581Z,6.30
2023-02-06T16:15:21.760Z,6.20
2023-02-06T16:17:48.805Z,6.20
2023-02-06T16:20:42.907Z,6.10
2023-02-06T16:23:28.966Z,6.00
2023-02-06T16:26:12.932Z,5.90
2023-02-06T16:29:03.623Z,5.80
2023-02-06T16:31:33.947Z,5.70
2023-02-06T16:34:04.924Z,5.70
2023-02-06T16:36:33.624Z,5.50
2023-02-06T16:39:04.418Z,5.50
2023-02-06T16:41:40.307Z,5.40
2023-02-06T16:44:12.788Z,5.30
2023-02-06T16:46:39.773Z,5.20
2023-02-06T16:49:12.838Z,5.10
2023-02-06T16:51:42.435Z,5.00
2023-02-06T16:54:19.878Z,4.90
2023-02-06T16:56:47.293Z,4.80
2023-02-06T16:59:14.313Z,4.80
2023-02-06T17:01:41.568Z,4.70
2023-02-06T17:04:08.552Z,4.70
2023-02-06T17:06:36.132Z,4.60
2023-02-06T17:09:09.126Z,4.60
2023-02-06T17:11:37.547Z,4.50
2023-02-06T17:14:05.949Z,4.40
2023-02-06T17:16:33.753Z,4.40
2023-02-06T17:19:00.880Z,4.30
2023-02-06T17:21:32.735Z,4.20
2023-02-06T17:24:00.080Z,4.20
2023-02-06T17:26:27.128Z,4.10
2023-02-06T17:28:54.176Z,4.00
2023-02-06T17:31:21.873Z,3.90
2023-02-06T17:33:48.981Z,3.90
2023-02-06T17:36:29.184Z,3.80
2023-02-06T17:39:00.370Z,3.70
2023-02-06T17:41:28.000Z,3.70
2023-02-06T17:43:54.976Z,3.60
2023-02-06T17:46:22.275Z,3.60
2023-02-06T17:48:49.248Z,3.50
2023-02-06T17:51:16.211Z,3.50
2023-02-06T17:53:43.152Z,3.50
2023-02-06T17:56:13.013Z,3.50
2023-02-06T17:58:41.056Z,3.50
2023-02-06T18:01:20.534Z,3.50
2023-02-06T18:03:48.123Z,3.50
2023-02-06T18:06:15.440Z,3.40
2023-02-06T18:08:43.436Z,3.40
2023-02-06T18:11:21.477Z,3.40
2023-02-06T18:13:49.544Z,3.40
2023-02-06T18:16:21.984Z,3.30
2023-02-06T18:18:49.615Z,3.30
2023-02-06T18:21:19.302Z,3.20
2023-02-06T18:23:47.408Z,3.20
2023-02-06T18:26:14.460Z,3.10
2023-02-06T18:28:41.426Z,3.00
2023-02-06T18:31:26.461Z,3.00
2023-02-06T18:33:54.461Z,3.00
2023-02-06T18:36:22.839Z,3.00
2023-02-06T18:38:50.053Z,3.00
2023-02-06T18:41:36.008Z,3.00
2023-02-06T18:44:05.590Z,3.00
2023-02-06T18:46:33.374Z,3.00
2023-02-06T18:49:00.585Z,3.00
2023-02-06T18:51:29.139Z,3.00
2023-02-06T18:53:57.617Z,3.00
2023-02-06T18:56:24.722Z,3.10
2023-02-06T18:58:51.802Z,3.00
2023-02-06T19:01:21.355Z,3.00
2023-02-06T19:03:49.312Z,3.00
2023-02-06T19:06:20.156Z,3.00
2023-02-06T19:08:47.134Z,3.00
2023-02-06T19:11:14.297Z,3.00
2023-02-06T19:13:41.355Z,3.00
2023-02-06T19:16:15.561Z,3.00
2023-02-06T19:18:44.668Z,3.00
2023-02-06T19:21:17.200Z,2.90
2023-02-06T19:23:45.716Z,3.00
2023-02-06T19:26:16.052Z,2.90
2023-02-06T19:28:44.087Z,2.80
2023-02-06T19:31:12.408Z,2.80
2023-02-06T19:33:41.699Z,2.70
2023-02-06T19:36:09.872Z,2.70
2023-02-06T19:38:37.255Z,2.70
2023-02-06T19:41:09.610Z,2.60
2023-02-06T19:43:37.486Z,2.60
2023-02-06T19:46:09.454Z,2.60
2023-02-06T19:48:36.422Z,2.60
2023-02-06T19:51:09.095Z,2.50
2023-02-06T19:53:36.414Z,2.50
2023-02-06T19:56:06.660Z,2.50
2023-02-06T19:58:33.671Z,2.50
2023-02-06T20:01:11.848Z,2.50
2023-02-06T20:03:39.708Z,2.50
2023-02-06T20:06:10.457Z,2.50
2023-02-06T20:08:39.274Z,2.60
2023-02-06T20:11:08.563Z,2.50
2023-02-06T20:13:36.641Z,2.60
2023-02-06T20:16:04.989Z,2.60
2023-02-06T20:18:35.878Z,2.60
2023-02-06T20:21:03.413Z,2.60
2023-02-06T20:23:31.387Z,2.70
2023-02-06T20:26:02.545Z,2.70
2023-02-06T20:28:29.998Z,2.70
2023-02-06T20:30:57.157Z,2.70
2023-02-06T20:33:24.118Z,2.80
2023-02-06T20:35:51.065Z,2.80
2023-02-06T20:38:18.178Z,2.80
2023-02-06T20:40:50.912Z,2.80
2023-02-06T20:43:17.890Z,2.80
2023-02-06T20:45:44.836Z,2.80
2023-02-06T20:48:11.774Z,2.80
2023-02-06T20:50:38.931Z,2.80
2023-02-06T20:53:06.180Z,2.80
2023-02-06T20:55:33.123Z,2.80
2023-02-06T20:58:00.265Z,2.80
2023-02-06T21:00:27.209Z,2.90
2023-02-06T21:02:54.128Z,2.90
2023-02-06T21:05:21.171Z,2.90
2023-02-06T21:07:48.105Z,3.00
2023-02-06T21:10:15.986Z,3.00
2023-02-06T21:12:43.313Z,3.10
2023-02-06T21:15:10.403Z,3.10
2023-02-06T21:17:37.530Z,3.10
2023-02-06T21:20:06.368Z,3.20
2023-02-06T21:22:33.832Z,3.20
2023-02-06T21:25:00.887Z,3.20
2023-02-06T21:27:28.923Z,3.20
2023-02-06T21:29:55.864Z,3.30
2023-02-06T21:32:22.910Z,3.30
2023-02-06T21:34:49.957Z,3.30
2023-02-06T21:37:16.929Z,3.20
2023-02-06T21:39:44.527Z,3.20
2023-02-06T21:42:11.657Z,3.20
2023-02-06T21:44:38.702Z,3.10
2023-02-06T21:47:05.611Z,3.10
2023-02-06T21:49:32.679Z,3.10
2023-02-06T21:51:59.916Z,3.00
2023-02-06T21:54:27.976Z,3.00
2023-02-06T21:56:54.913Z,3.00
2023-02-06T21:59:21.866Z,3.00
2023-02-06T22:01:48.836Z,2.90
2023-02-06T22:04:15.789Z,2.90
2023-02-06T22:06:43.644Z,2.90
2023-02-06T22:09:15.450Z,2.80
2023-02-06T22:11:43.271Z,2.80
2023-02-06T22:14:12.832Z,2.80
2023-02-06T22:16:39.910Z,2.70
2023-02-06T22:19:07.416Z,2.70
2023-02-06T22:21:35.165Z,2.70
2023-02-06T22:24:07.444Z,2.70
2023-02-06T22:26:38.475Z,2.70
2023-02-06T22:29:12.144Z,2.60
2023-02-06T22:31:40.791Z,2.50
2023-02-06T22:34:11.843Z,2.50
2023-02-06T22:36:39.594Z,2.40
2023-02-06T22:39:08.682Z,2.40
2023-02-06T22:41:39.421Z,2.40
2023-02-06T22:44:06.428Z,2.30
2023-02-06T22:46:36.446Z,2.30
2023-02-06T22:49:05.693Z,2.30
2023-02-06T22:51:33.222Z,2.30
2023-02-06T22:54:00.678Z,2.20
2023-02-06T22:56:36.213Z,2.20
2023-02-06T22:59:13.999Z,2.10
2023-02-06T23:01:42.754Z,2.20
2023-02-06T23:04:21.816Z,2.10
2023-02-06T23:06:49.629Z,2.10
2023-02-06T23:09:43.099Z,2.20
2023-02-06T23:12:11.663Z,2.20
2023-02-06T23:14:38.688Z,2.10
2023-02-06T23:17:05.711Z,2.10
2023-02-06T23:19:32.757Z,2.10
2023-02-06T23:21:59.735Z,2.10
2023-02-06T23:24:26.898Z,2.10
2023-02-06T23:26:54.547Z,2.10
2023-02-06T23:29:22.767Z,2.10
2023-02-06T23:31:50.745Z,2.10
2023-02-06T23:34:18.377Z,2.10
2023-02-06T23:36:46.372Z,2.10
2023-02-06T23:39:13.366Z,2.10
2023-02-06T23:41:40.573Z,2.10
2023-02-06T23:44:08.569Z,2.10
2023-02-06T23:46:37.580Z,2.10
2023-02-06T23:49:06.458Z,2.00
2023-02-06T23:51:35.144Z,2.00
2023-02-06T23:54:02.599Z,2.00
2023-02-06T23:56:31.399Z,1.90
2023-02-06T23:58:59.686Z,1.90
